Time;durP1;ratioP1;P1;durP2;ratioP2;P2;SDS_P1;SDS_P2;PMS_P1;PMS_P2;Temp;Humidity;BMP_temperature;BMP_pressure;BME280_temperature;BME280_humidity;BME280_pressure;Samples;Min_cycle;Max_cycle;Signal;HPM_P1;HPM_P2
2023/06/17 00:01:50;;;;;;;7.50;6.00;;;15.40;75.00;;;;;;5024950;28;20448;-74
2023/06/17 00:04:36;;;;;;;6.40;5.67;;;15.30;76.30;;;;;;5025726;28;20494;-74
2023/06/17 00:07:22;;;;;;;7.27;5.57;;;15.20;76.50;;;;;;5026137;28;20499;-73
2023/06/17 00:10:10;;;;;;;6.03;5.30;;;15.10;77.40;;;;;;5025693;28;22425;-74
2023/06/17 00:12:58;;;;;;;9.60;6.50;;;15.20;77.90;;;;;;5026198;28;20537;-74
2023/06/17 00:15:43;;;;;;;15.13;5.90;;;15.30;77.80;;;;;;5025512;28;20471;-74
2023/06/17 00:18:32;;;;;;;7.43;5.63;;;15.40;77.10;;;;;;5029751;28;20598;-72
2023/06/17 00:21:17;;;;;;;6.47;5.87;;;15.50;76.90;;;;;;5024002;28;20461;-72
2023/06/17 00:24:03;;;;;;;6.50;5.77;;;15.50;76.10;;;;;;5030243;28;20452;-73
2023/06/17 00:26:50;;;;;;;8.80;6.20;;;15.50;75.70;;;;;;5026358;28;20530;-73
2023/06/17 00:29:36;;;;;;;7.20;5.47;;;15.40;75.90;;;;;;5029237;28;22844;-72
2023/06/17 00:32:21;;;;;;;8.97;5.90;;;15.50;76.20;;;;;;5025415;28;20451;-73
2023/06/17 00:35:07;;;;;;;7.90;5.60;;;15.50;76.40;;;;;;5026697;28;20423;-72
2023/06/17 00:37:53;;;;;;;7.93;6.33;;;15.60;76.40;;;;;;5024424;28;20458;-72
2023/06/17 00:40:38;;;;;;;7.50;5.73;;;15.50;75.60;;;;;;5035805;28;20411;-72
2023/06/17 00:43:25;;;;;;;6.90;5.37;;;15.30;76.20;;;;;;5025112;28;20455;-73
2023/06/17 00:46:12;;;;;;;13.30;6.00;;;15.30;76.70;;;;;;5029528;28;20442;-73
2023/06/17 00:48:58;;;;;;;12.30;6.23;;;15.30;77.30;;;;;;5031688;28;20447;-72
2023/06/17 00:51:43;;;;;;;7.20;5.90;;;15.20;76.60;;;;;;5029750;28;22035;-72
2023/06/17 00:54:29;;;;;;;7.30;6.10;;;15.20;76.60;;;;;;5027368;28;21002;-72
2023/06/17 00:57:16;;;;;;;8.27;6.00;;;15.00;77.00;;;;;;5032183;28;20495;-73
2023/06/17 01:00:05;;;;;;;8.63;6.70;;;14.80;78.40;;;;;;5028239;28;20441;-72
2023/06/17 01:02:50;;;;;;;7.33;6.07;;;14.50;80.40;;;;;;5031859;28;20818;-73
2023/06/17 01:05:38;;;;;;;6.50;5.80;;;14.40;82.80;;;;;;5027319;28;20447;-72
2023/06/17 01:08:30;;;;;;;7.70;6.17;;;14.40;84.40;;;;;;5031844;28;20618;-72
2023/06/17 01:11:17;;;;;;;9.03;5.73;;;14.40;84.50;;;;;;5031394;28;21540;-73
2023/06/17 01:14:03;;;;;;;6.20;5.60;;;14.60;84.90;;;;;;5029796;28;20443;-72
2023/06/17 01:16:54;;;;;;;6.93;5.83;;;14.70;84.10;;;;;;5028359;28;20472;-73
2023/06/17 01:19:40;;;;;;;7.87;5.33;;;14.60;83.10;;;;;;5030058;28;20580;-73
2023/06/17 01:22:27;;;;;;;8.40;5.80;;;14.60;83.30;;;;;;5031351;28;20447;-73
2023/06/17 01:25:14;;;;;;;8.07;5.50;;;14.60;83.20;;;;;;5031422;28;20535;-72
2023/06/17 01:28:01;;;;;;;7.83;5.23;;;14.50;83.00;;;;;;5035133;28;20548;-73
2023/06/17 01:30:48;;;;;;;6.50;5.80;;;14.40;83.80;;;;;;5030101;28;20535;-72
2023/06/17 01:33:33;;;;;;;6.57;5.63;;;14.50;84.70;;;;;;5037096;28;20435;-73
2023/06/17 01:36:23;;;;;;;6.20;5.60;;;14.50;84.30;;;;;;5030582;28;21095;-73
2023/06/17 01:39:11;;;;;;;9.50;6.27;;;14.70;85.20;;;;;;5030501;28;20500;-72
2023/06/17 01:42:00;;;;;;;22.37;5.73;;;14.70;84.00;;;;;;5028157;28;20427;-73
2023/06/17 01:44:47;;;;;;;7.97;6.00;;;14.60;83.20;;;;;;5029726;28;20498;-72
2023/06/17 01:47:33;;;;;;;12.83;5.73;;;14.50;82.90;;;;;;5030983;28;20489;-73
2023/06/17 01:50:19;;;;;;;7.27;6.33;;;14.30;83.30;;;;;;5029746;28;20981;-73
2023/06/17 01:53:04;;;;;;;7.23;6.53;;;14.20;84.40;;;;;;5036358;28;20918;-72
2023/06/17 01:55:51;;;;;;;7.70;6.30;;;14.10;85.40;;;;;;5029659;28;20517;-72
2023/06/17 01:58:38;;;;;;;10.73;7.03;;;14.00;86.30;;;;;;5031379;28;20521;-73
2023/06/17 02:01:24;;;;;;;8.20;6.43;;;14.00;86.70;;;;;;5029606;28;20445;-73
2023/06/17 02:04:09;;;;;;;7.23;5.93;;;14.00;86.10;;;;;;5032691;28;20440;-72
2023/06/17 02:06:56;;;;;;;7.70;5.77;;;14.10;85.50;;;;;;5025757;28;20479;-72
2023/06/17 02:09:42;;;;;;;9.10;6.00;;;14.10;85.80;;;;;;5027777;28;20470;-72
2023/06/17 02:12:28;;;;;;;8.60;6.20;;;14.20;85.50;;;;;;5042583;28;20456;-72
2023/06/17 02:15:15;;;;;;;8.53;6.27;;;14.30;84.50;;;;;;5029027;28;21100;-73
2023/06/17 02:18:00;;;;;;;8.80;6.67;;;14.30;84.90;;;;;;5030132;28;20559;-73
2023/06/17 02:20:47;;;;;;;8.57;6.00;;;14.30;84.60;;;;;;5032027;28;20542;-73
2023/06/17 02:23:32;;;;;;;12.33;6.43;;;14.30;84.40;;;;;;5040850;28;20535;-72
2023/06/17 02:26:18;;;;;;;7.60;6.20;;;14.30;84.50;;;;;;5028897;28;20603;-73
2023/06/17 02:29:04;;;;;;;7.33;6.40;;;14.30;83.80;;;;;;5036588;28;20468;-72
2023/06/17 02:31:51;;;;;;;7.40;6.60;;;14.20;83.20;;;;;;5030455;28;20487;-72
2023/06/17 02:34:37;;;;;;;9.50;7.47;;;14.10;83.60;;;;;;5030012;28;20498;-72
2023/06/17 02:37:22;;;;;;;8.60;7.10;;;14.00;83.90;;;;;;5031823;28;20468;-72
2023/06/17 02:40:10;;;;;;;9.67;5.77;;;13.80;85.40;;;;;;5029586;28;20526;-72
2023/06/17 02:42:55;;;;;;;7.97;6.10;;;13.70;85.60;;;;;;5033490;28;20487;-73
2023/06/17 02:45:41;;;;;;;8.00;6.43;;;13.70;85.80;;;;;;5030055;28;20975;-72
2023/06/17 02:48:28;;;;;;;8.00;6.40;;;13.70;85.50;;;;;;5028560;28;20483;-73
2023/06/17 02:51:13;;;;;;;7.80;6.60;;;13.80;85.10;;;;;;5028128;28;20474;-73
2023/06/17 02:53:59;;;;;;;13.13;7.47;;;13.90;84.60;;;;;;5028556;28;20860;-72
2023/06/17 02:56:44;;;;;;;7.10;6.13;;;13.80;84.50;;;;;;5025694;28;20477;-74
2023/06/17 02:59:33;;;;;;;8.37;6.73;;;13.90;84.70;;;;;;5026678;28;20484;-73
2023/06/17 03:02:18;;;;;;;7.50;6.10;;;13.90;85.10;;;;;;5026023;28;20451;-73
2023/06/17 03:05:07;;;;;;;10.63;6.03;;;14.00;84.80;;;;;;5026249;28;20437;-72
2023/06/17 03:07:53;;;;;;;8.93;6.87;;;13.90;84.60;;;;;;5020867;28;21283;-72
2023/06/17 03:10:38;;;;;;;8.30;5.80;;;13.80;84.00;;;;;;5025174;28;20430;-73
2023/06/17 03:13:23;;;;;;;6.80;5.70;;;13.90;84.10;;;;;;5025400;28;20600;-73
2023/06/17 03:16:09;;;;;;;12.40;6.10;;;13.70;84.30;;;;;;5024035;28;21654;-72
2023/06/17 03:18:54;;;;;;;21.10;6.90;;;13.50;84.90;;;;;;5029441;28;20432;-72
2023/06/17 03:21:45;;;;;;;17.20;5.97;;;13.50;85.80;;;;;;5027080;28;20510;-72
2023/06/17 03:24:30;;;;;;;13.67;7.93;;;13.40;86.40;;;;;;5026920;28;20455;-73
2023/06/17 03:27:16;;;;;;;9.47;6.27;;;13.50;86.40;;;;;;5024989;28;20454;-73
2023/06/17 03:30:02;;;;;;;7.00;5.50;;;13.50;86.50;;;;;;5029204;28;20637;-72
2023/06/17 03:32:48;;;;;;;16.87;6.27;;;13.50;86.00;;;;;;5032881;28;20446;-73
2023/06/17 03:35:34;;;;;;;10.23;5.50;;;13.50;86.20;;;;;;5025305;28;20990;-73
2023/06/17 03:38:20;;;;;;;9.30;6.97;;;13.50;86.20;;;;;;5026534;28;20435;-72
2023/06/17 03:41:06;;;;;;;14.23;6.60;;;13.50;86.80;;;;;;5025584;28;21005;-73
2023/06/17 03:43:52;;;;;;;12.63;6.50;;;13.50;87.00;;;;;;5028102;28;20824;-72
2023/06/17 03:46:37;;;;;;;12.93;7.50;;;13.50;86.90;;;;;;5023771;28;20520;-72
2023/06/17 03:49:23;;;;;;;7.73;6.23;;;13.40;87.50;;;;;;5024442;28;20828;-72
2023/06/17 03:52:08;;;;;;;7.93;6.17;;;13.40;87.50;;;;;;5032714;28;20515;-72
2023/06/17 03:54:56;;;;;;;14.60;6.20;;;13.40;87.50;;;;;;5026904;28;20464;-71
2023/06/17 03:57:41;;;;;;;15.33;6.33;;;13.50;87.90;;;;;;5029067;28;20479;-72
2023/06/17 04:00:27;;;;;;;8.67;7.07;;;13.50;87.60;;;;;;5026724;28;20511;-72
2023/06/17 04:03:12;;;;;;;7.87;6.33;;;13.50;88.40;;;;;;5028555;28;20478;-72
2023/06/17 04:05:58;;;;;;;7.93;6.57;;;13.60;88.40;;;;;;5022562;28;21738;-72
2023/06/17 04:08:44;;;;;;;8.20;5.73;;;13.70;88.00;;;;;;5025972;28;21025;-72
2023/06/17 04:11:32;;;;;;;10.20;6.70;;;13.80;88.10;;;;;;5024298;28;20816;-73
2023/06/17 04:14:17;;;;;;;12.43;7.13;;;13.90;88.40;;;;;;5028176;28;20500;-73
2023/06/17 04:17:03;;;;;;;8.57;6.77;;;14.10;88.80;;;;;;5025757;28;21008;-72
2023/06/17 04:19:49;;;;;;;9.90;6.83;;;14.20;88.90;;;;;;5025001;28;20460;-73
2023/06/17 04:22:34;;;;;;;12.87;7.23;;;14.20;89.10;;;;;;5025450;28;20687;-73
2023/06/17 04:25:22;;;;;;;8.50;6.37;;;14.30;89.20;;;;;;5026239;28;20438;-72
2023/06/17 04:28:12;;;;;;;7.53;6.80;;;14.30;88.20;;;;;;5026935;28;21094;-73
2023/06/17 04:30:59;;;;;;;8.63;6.87;;;14.40;88.30;;;;;;5029642;28;20871;-75
2023/06/17 04:33:44;;;;;;;8.20;6.47;;;14.40;88.20;;;;;;5026844;28;21424;-72
2023/06/17 04:36:30;;;;;;;14.87;6.73;;;14.40;88.20;;;;;;5023504;28;20703;-72
2023/06/17 04:39:15;;;;;;;12.30;6.97;;;14.40;87.90;;;;;;5025395;28;20996;-73
2023/06/17 04:42:01;;;;;;;8.60;7.47;;;14.40;88.30;;;;;;5025950;28;20489;-73
2023/06/17 04:44:49;;;;;;;8.80;6.50;;;14.50;88.40;;;;;;5024509;28;21166;-72
2023/06/17 04:47:34;;;;;;;9.33;6.50;;;14.60;88.70;;;;;;5027030;28;20495;-73
2023/06/17 04:50:20;;;;;;;6.83;6.13;;;14.70;88.50;;;;;;5025709;28;20456;-73
2023/06/17 04:53:06;;;;;;;7.00;6.20;;;14.80;88.20;;;;;;5027570;28;20870;-72
2023/06/17 04:55:52;;;;;;;7.53;6.40;;;14.70;88.30;;;;;;5027293;28;20440;-73
2023/06/17 04:58:37;;;;;;;8.40;7.07;;;14.80;88.60;;;;;;5030463;28;20443;-72
2023/06/17 05:01:24;;;;;;;9.00;6.67;;;14.90;88.70;;;;;;5024550;28;20546;-72
2023/06/17 05:04:09;;;;;;;8.67;7.17;;;15.10;88.90;;;;;;5027235;28;20956;-72
2023/06/17 05:06:55;;;;;;;9.27;7.10;;;15.20;88.40;;;;;;5024899;28;20630;-73
2023/06/17 05:09:40;;;;;;;9.40;7.00;;;15.20;87.90;;;;;;5025635;28;21091;-72
2023/06/17 05:12:26;;;;;;;10.20;7.30;;;15.20;88.60;;;;;;5026491;28;20457;-72
2023/06/17 05:15:11;;;;;;;12.40;6.80;;;15.40;89.90;;;;;;5024096;28;20444;-72
2023/06/17 05:17:58;;;;;;;6.80;5.80;;;15.60;89.30;;;;;;5025773;28;20710;-73
2023/06/17 05:20:44;;;;;;;9.83;6.90;;;15.70;89.30;;;;;;5024444;28;20590;-72
2023/06/17 05:23:30;;;;;;;7.43;6.67;;;15.80;89.50;;;;;;5027365;28;20487;-72
2023/06/17 05:26:15;;;;;;;9.63;6.90;;;15.90;88.10;;;;;;5025075;28;20468;-72
2023/06/17 05:29:01;;;;;;;9.60;6.90;;;16.00;86.40;;;;;;5032168;28;20849;-72
2023/06/17 05:31:46;;;;;;;7.30;6.33;;;16.20;86.90;;;;;;5033034;28;20599;-72
2023/06/17 05:34:33;;;;;;;9.87;8.07;;;16.30;87.40;;;;;;5032685;28;20459;-73
2023/06/17 05:37:19;;;;;;;9.70;7.00;;;16.40;86.10;;;;;;5030548;28;20572;-73
2023/06/17 05:40:06;;;;;;;8.47;6.33;;;16.40;86.30;;;;;;5029545;28;20441;-72
2023/06/17 05:42:51;;;;;;;9.30;6.77;;;16.50;86.90;;;;;;5028700;28;20453;-72
2023/06/17 05:45:37;;;;;;;12.37;7.17;;;16.60;87.10;;;;;;5027900;28;20457;-72
2023/06/17 05:48:22;;;;;;;7.57;6.70;;;16.70;86.90;;;;;;5035452;28;20618;-72
2023/06/17 05:51:09;;;;;;;9.83;6.13;;;16.80;85.40;;;;;;5027765;28;20438;-73
2023/06/17 05:53:55;;;;;;;11.63;7.30;;;17.00;85.50;;;;;;5026483;28;20452;-72
2023/06/17 05:56:40;;;;;;;9.07;6.50;;;17.00;82.70;;;;;;5030031;28;20484;-72
2023/06/17 05:59:28;;;;;;;10.23;6.27;;;17.20;82.20;;;;;;5028527;28;20957;-73
2023/06/17 06:02:14;;;;;;;33.57;7.37;;;17.30;79.40;;;;;;5026313;28;20497;-72
2023/06/17 06:04:59;;;;;;;14.40;7.10;;;17.40;78.90;;;;;;5024042;28;20423;-73
2023/06/17 06:07:46;;;;;;;7.57;5.50;;;17.50;78.90;;;;;;5027007;28;20492;-72
2023/06/17 06:10:32;;;;;;;11.10;6.63;;;17.70;77.20;;;;;;5028299;28;22620;-73
2023/06/17 06:13:17;;;;;;;10.33;6.30;;;17.90;77.50;;;;;;5029515;28;20810;-72
2023/06/17 06:16:03;;;;;;;9.37;6.90;;;17.90;78.90;;;;;;5027332;28;20854;-72
2023/06/17 06:18:49;;;;;;;8.20;6.33;;;18.10;78.70;;;;;;5032286;28;20476;-74
2023/06/17 06:21:34;;;;;;;8.00;6.47;;;18.10;75.50;;;;;;5025295;28;20448;-73
2023/06/17 06:24:21;;;;;;;9.97;6.40;;;18.20;73.20;;;;;;5029133;28;20445;-73
2023/06/17 06:27:06;;;;;;;9.90;6.20;;;18.40;72.20;;;;;;5031669;28;21008;-74
2023/06/17 06:29:52;;;;;;;10.13;7.20;;;18.50;73.40;;;;;;5029048;28;20570;-73
2023/06/17 06:32:38;;;;;;;9.03;6.57;;;18.60;72.90;;;;;;5026938;28;20476;-74
2023/06/17 06:35:23;;;;;;;7.60;6.53;;;18.70;71.50;;;;;;5028016;28;20525;-73
2023/06/17 06:38:09;;;;;;;10.23;5.83;;;18.90;71.20;;;;;;5027275;28;20500;-73
2023/06/17 06:40:56;;;;;;;7.70;6.43;;;19.00;70.30;;;;;;5023739;28;20658;-73
2023/06/17 06:43:41;;;;;;;8.30;5.70;;;19.20;67.50;;;;;;5026420;28;20449;-73
2023/06/17 06:46:27;;;;;;;8.93;6.23;;;19.30;66.80;;;;;;5030250;28;20598;-73
2023/06/17 06:49:12;;;;;;;10.80;6.67;;;19.40;68.00;;;;;;5029248;28;20480;-73
2023/06/17 06:51:58;;;;;;;7.40;6.10;;;19.60;68.60;;;;;;5026871;28;20443;-73
2023/06/17 06:54:44;;;;;;;7.40;6.20;;;19.60;66.80;;;;;;5027345;28;20476;-73
2023/06/17 06:57:31;;;;;;;8.57;6.13;;;19.70;65.50;;;;;;5030102;28;21073;-72
2023/06/17 07:00:17;;;;;;;11.40;7.20;;;19.80;66.20;;;;;;5026527;28;21251;-73
2023/06/17 07:03:02;;;;;;;9.43;6.97;;;20.00;64.90;;;;;;5029096;28;20455;-72
2023/06/17 07:05:48;;;;;;;14.50;6.30;;;20.10;65.20;;;;;;5025009;28;20965;-73
2023/06/17 07:08:33;;;;;;;7.07;6.13;;;20.30;65.20;;;;;;5029550;28;20806;-73
2023/06/17 07:11:19;;;;;;;9.43;5.63;;;20.40;64.70;;;;;;5025586;28;20822;-73
2023/06/17 07:14:07;;;;;;;9.67;6.97;;;20.50;63.60;;;;;;5029897;28;20456;-73
2023/06/17 07:16:53;;;;;;;7.43;6.30;;;20.60;61.90;;;;;;5026733;28;21843;-73
2023/06/17 07:19:38;;;;;;;14.73;6.17;;;20.70;61.70;;;;;;5025704;28;20451;-73
2023/06/17 07:22:24;;;;;;;7.77;6.73;;;20.90;61.60;;;;;;5039758;28;20474;-73
2023/06/17 07:25:10;;;;;;;9.63;7.30;;;21.00;59.80;;;;;;5028495;28;20447;-73
2023/06/17 07:27:56;;;;;;;6.87;6.13;;;21.10;58.80;;;;;;5023878;28;20495;-73
2023/06/17 07:30:43;;;;;;;11.60;7.50;;;21.20;60.20;;;;;;5027731;28;20479;-73
2023/06/17 07:33:28;;;;;;;13.90;6.67;;;21.30;56.20;;;;;;5026427;28;20448;-73
2023/06/17 07:36:14;;;;;;;10.17;7.83;;;21.40;56.00;;;;;;5025807;28;21140;-72
2023/06/17 07:39:00;;;;;;;8.60;6.10;;;21.50;54.90;;;;;;5026437;28;20513;-73
2023/06/17 07:41:45;;;;;;;11.13;7.63;;;21.60;55.00;;;;;;5025345;28;20595;-72
2023/06/17 07:44:32;;;;;;;16.57;7.93;;;21.60;52.50;;;;;;5039781;28;20797;-73
2023/06/17 07:47:20;;;;;;;9.60;8.00;;;21.80;52.40;;;;;;5026710;28;20480;-72
2023/06/17 07:50:08;;;;;;;12.57;8.13;;;21.70;47.00;;;;;;5033522;28;20476;-72
2023/06/17 07:52:53;;;;;;;9.23;7.70;;;21.80;48.00;;;;;;5033816;28;20471;-72
2023/06/17 07:55:39;;;;;;;8.97;7.60;;;21.90;49.60;;;;;;5028514;28;20480;-72
2023/06/17 07:58:24;;;;;;;13.73;9.10;;;22.00;48.20;;;;;;5025281;28;20988;-73
2023/06/17 08:01:10;;;;;;;12.00;9.67;;;22.10;45.00;;;;;;5026154;28;20488;-72
2023/06/17 08:03:56;;;;;;;12.10;8.97;;;22.20;46.80;;;;;;5029027;28;20501;-72
2023/06/17 08:06:42;;;;;;;13.87;9.43;;;22.30;42.00;;;;;;5026234;28;20622;-72
2023/06/17 08:09:28;;;;;;;21.97;10.10;;;22.30;42.00;;;;;;5028514;28;20500;-72
2023/06/17 08:12:14;;;;;;;18.13;10.83;;;22.40;42.20;;;;;;5026467;28;20582;-72
2023/06/17 08:14:59;;;;;;;16.63;9.67;;;22.50;40.60;;;;;;5029007;28;20448;-73
2023/06/17 08:17:45;;;;;;;10.33;8.30;;;22.60;38.70;;;;;;5029779;28;20467;-72
2023/06/17 08:20:32;;;;;;;10.97;9.07;;;22.60;37.40;;;;;;5029358;28;21107;-72
2023/06/17 08:23:17;;;;;;;16.40;8.93;;;22.70;38.80;;;;;;5028333;28;20447;-73
2023/06/17 08:26:03;;;;;;;15.60;10.87;;;22.80;39.80;;;;;;5037240;28;20506;-73
2023/06/17 08:28:48;;;;;;;12.00;9.30;;;22.80;38.30;;;;;;5034730;28;20443;-73
2023/06/17 08:31:34;;;;;;;14.13;7.43;;;22.90;38.80;;;;;;5029635;28;20460;-72
2023/06/17 08:34:21;;;;;;;11.33;8.87;;;23.00;38.50;;;;;;5029096;28;20575;-72
2023/06/17 08:37:08;;;;;;;9.40;8.10;;;23.10;37.00;;;;;;5029039;28;20476;-73
2023/06/17 08:39:53;;;;;;;13.23;7.03;;;23.20;37.10;;;;;;5032575;28;20455;-73
2023/06/17 08:42:39;;;;;;;10.13;7.70;;;23.20;31.50;;;;;;5028035;28;20579;-73
2023/06/17 08:45:26;;;;;;;10.00;7.97;;;23.30;35.00;;;;;;5028122;28;20487;-72
2023/06/17 08:48:11;;;;;;;10.83;7.30;;;23.30;29.90;;;;;;5031558;28;20499;-72
2023/06/17 08:50:57;;;;;;;9.67;7.07;;;23.30;34.00;;;;;;5025945;28;20479;-72
2023/06/17 08:53:45;;;;;;;9.53;7.10;;;23.40;30.70;;;;;;5032774;28;20790;-72
2023/06/17 08:56:31;;;;;;;10.80;7.57;;;23.50;28.00;;;;;;5035133;28;20985;-74
2023/06/17 08:59:16;;;;;;;12.50;6.77;;;23.60;29.40;;;;;;5041626;28;21036;-72
2023/06/17 09:02:03;;;;;;;9.27;6.90;;;23.70;28.10;;;;;;5039215;28;20442;-73
2023/06/17 09:04:49;;;;;;;11.47;6.87;;;23.80;29.20;;;;;;5034584;28;20436;-75
2023/06/17 09:07:35;;;;;;;8.83;6.83;;;23.90;26.20;;;;;;5028320;28;23789;-75
2023/06/17 09:10:21;;;;;;;9.90;6.13;;;24.00;26.90;;;;;;5032306;28;20480;-73
2023/06/17 09:13:08;;;;;;;6.63;5.57;;;24.10;27.30;;;;;;5048032;28;20455;-75
2023/06/17 09:15:55;;;;;;;7.20;6.50;;;24.00;21.00;;;;;;5030633;28;20650;-73
2023/06/17 09:18:40;;;;;;;6.70;5.80;;;24.10;18.60;;;;;;5036657;28;20495;-74
2023/06/17 09:21:27;;;;;;;8.20;6.70;;;24.10;20.30;;;;;;5036198;28;20808;-74
2023/06/17 09:24:13;;;;;;;12.57;6.50;;;24.10;21.80;;;;;;5050711;28;20447;-75
2023/06/17 09:27:00;;;;;;;8.20;6.63;;;24.20;21.10;;;;;;5035203;28;20483;-75
2023/06/17 09:29:48;;;;;;;11.03;6.10;;;24.30;19.60;;;;;;5039054;28;20561;-75
2023/06/17 09:32:39;;;;;;;6.97;5.97;;;24.30;17.20;;;;;;5036829;28;20921;-75
2023/06/17 09:35:25;;;;;;;15.10;5.40;;;24.40;16.80;;;;;;5044474;28;20965;-75
2023/06/17 09:38:10;;;;;;;6.63;5.70;;;24.50;18.60;;;;;;5030936;28;20500;-75
2023/06/17 09:40:56;;;;;;;7.77;6.13;;;24.60;16.80;;;;;;5029705;28;21076;-75
2023/06/17 09:43:49;;;;;;;7.97;5.83;;;24.60;14.90;;;;;;5032957;28;20529;-75
2023/06/17 09:46:37;;;;;;;7.53;5.80;;;24.70;15.30;;;;;;5029282;28;21214;-74
2023/06/17 09:49:23;;;;;;;8.83;5.63;;;24.70;15.40;;;;;;5039639;28;20463;-75
2023/06/17 09:52:10;;;;;;;9.50;5.60;;;24.80;14.10;;;;;;5031375;28;20810;-75
2023/06/17 09:54:55;;;;;;;6.57;5.27;;;24.90;16.40;;;;;;5031047;28;20449;-75
2023/06/17 09:57:43;;;;;;;7.13;5.00;;;25.00;12.90;;;;;;5030956;28;20475;-75
2023/06/17 10:00:31;;;;;;;9.37;5.30;;;25.10;14.30;;;;;;5030100;28;20443;-75
2023/06/17 10:03:17;;;;;;;8.30;6.17;;;25.10;12.60;;;;;;5030685;28;20456;-75
2023/06/17 10:06:04;;;;;;;7.27;6.10;;;25.00;12.90;;;;;;5032026;28;20970;-75
2023/06/17 10:08:50;;;;;;;13.90;6.33;;;25.10;11.70;;;;;;5030448;28;20485;-76
2023/06/17 10:11:36;;;;;;;10.73;5.80;;;25.10;13.40;;;;;;5044025;28;20513;-75
2023/06/17 10:14:26;;;;;;;12.57;6.37;;;25.30;12.90;;;;;;5036050;28;20535;-74
2023/06/17 10:17:13;;;;;;;14.77;5.83;;;25.50;11.50;;;;;;5029049;28;20500;-75
2023/06/17 10:20:03;;;;;;;12.00;5.30;;;25.50;12.10;;;;;;5029528;28;20855;-75
2023/06/17 10:22:54;;;;;;;6.27;4.00;;;25.50;9.10;;;;;;5029829;28;20445;-74
2023/06/17 10:25:40;;;;;;;5.80;4.23;;;25.50;8.90;;;;;;5030605;28;20468;-75
2023/06/17 10:28:26;;;;;;;7.20;6.00;;;25.60;9.10;;;;;;5034401;28;20448;-75
2023/06/17 10:31:22;;;;;;;11.60;6.70;;;25.70;10.20;;;;;;5030531;28;21170;-75
2023/06/17 10:34:16;;;;;;;11.93;6.00;;;25.80;11.60;;;;;;5030578;28;20466;-75
2023/06/17 10:37:01;;;;;;;9.10;6.23;;;25.90;11.00;;;;;;5030045;28;20991;-74
2023/06/17 10:39:52;;;;;;;9.60;6.20;;;26.00;12.50;;;;;;5029864;28;20882;-75
2023/06/17 10:42:38;;;;;;;7.53;6.50;;;26.10;14.00;;;;;;5029150;28;20465;-74
2023/06/17 10:45:23;;;;;;;7.47;6.23;;;26.10;14.20;;;;;;5030306;28;20453;-75
2023/06/17 10:48:16;;;;;;;7.83;6.30;;;26.30;14.20;;;;;;5043018;28;20447;-74
2023/06/17 10:51:08;;;;;;;7.70;6.20;;;26.30;14.20;;;;;;5029652;28;20625;-75
2023/06/17 10:53:54;;;;;;;8.30;5.80;;;26.40;12.10;;;;;;5028916;28;20604;-75
2023/06/17 10:56:47;;;;;;;8.60;5.23;;;26.50;10.30;;;;;;5031263;28;20528;-75
2023/06/17 10:59:33;;;;;;;8.03;5.40;;;26.50;11.20;;;;;;5030714;28;20452;-75
2023/06/17 11:02:21;;;;;;;10.00;5.80;;;26.50;9.50;;;;;;5028439;28;20440;-75
2023/06/17 11:05:08;;;;;;;6.87;5.13;;;26.50;8.80;;;;;;5029233;28;20455;-75
2023/06/17 11:07:55;;;;;;;10.23;6.53;;;26.40;9.70;;;;;;5029936;28;20671;-75
2023/06/17 11:10:41;;;;;;;7.23;5.53;;;26.40;10.80;;;;;;5028166;28;20471;-75
2023/06/17 11:13:26;;;;;;;8.70;5.97;;;26.50;12.80;;;;;;5040847;28;20521;-74
2023/06/17 11:16:12;;;;;;;11.70;5.70;;;26.60;12.70;;;;;;5030201;28;20582;-75
2023/06/17 11:18:59;;;;;;;6.67;5.93;;;26.70;10.90;;;;;;5029729;28;20509;-74
2023/06/17 11:21:44;;;;;;;6.73;6.03;;;26.80;9.70;;;;;;5028307;28;20583;-75
2023/06/17 11:24:31;;;;;;;11.13;6.50;;;26.90;9.90;;;;;;5031151;28;20447;-75
2023/06/17 11:27:18;;;;;;;6.93;5.60;;;27.00;10.10;;;;;;5027941;28;20834;-75
2023/06/17 11:30:04;;;;;;;18.57;16.73;;;27.00;9.30;;;;;;5029111;28;20474;-74
2023/06/17 11:32:50;;;;;;;12.93;10.40;;;27.10;9.70;;;;;;5030409;28;20544;-75
2023/06/17 11:35:37;;;;;;;7.30;6.13;;;27.20;8.40;;;;;;5030309;28;20449;-75
2023/06/17 11:38:24;;;;;;;7.03;5.70;;;27.20;8.40;;;;;;5031319;28;20471;-75
2023/06/17 11:41:10;;;;;;;7.80;6.57;;;27.10;7.20;;;;;;5039881;28;20444;-74
2023/06/17 11:43:56;;;;;;;9.37;5.70;;;27.00;8.30;;;;;;5044267;28;20455;-75
2023/06/17 11:46:42;;;;;;;10.80;5.33;;;26.90;7.00;;;;;;5028677;28;20461;-75
2023/06/17 11:49:28;;;;;;;6.60;5.67;;;26.80;5.80;;;;;;5036797;28;20443;-75
2023/06/17 11:52:14;;;;;;;6.77;5.57;;;26.70;7.50;;;;;;5041343;28;20440;-75
2023/06/17 11:54:59;;;;;;;7.20;5.20;;;26.60;8.00;;;;;;5029322;28;20506;-75
2023/06/17 11:57:46;;;;;;;8.73;5.80;;;26.80;7.70;;;;;;5029726;28;20464;-75
2023/06/17 12:00:35;;;;;;;12.83;5.80;;;27.00;7.70;;;;;;5025230;28;20490;-72
2023/06/17 12:03:21;;;;;;;7.37;5.20;;;27.20;6.20;;;;;;5026580;28;20582;-73
2023/06/17 12:06:06;;;;;;;6.87;6.17;;;27.40;7.30;;;;;;5027798;28;20475;-74
2023/06/17 12:08:57;;;;;;;11.63;5.90;;;27.40;5.30;;;;;;5025366;28;20460;-73
2023/06/17 12:11:43;;;;;;;8.40;4.80;;;27.30;6.20;;;;;;5025178;28;20488;-73
2023/06/17 12:14:30;;;;;;;5.50;4.87;;;27.50;6.70;;;;;;5025736;28;20661;-73
2023/06/17 12:17:19;;;;;;;8.30;5.80;;;27.50;5.50;;;;;;5029378;28;20485;-73
2023/06/17 12:20:05;;;;;;;7.07;5.50;;;27.60;6.10;;;;;;5027187;28;20524;-73
2023/06/17 12:22:52;;;;;;;7.80;5.73;;;27.80;7.20;;;;;;5027214;28;20449;-73
2023/06/17 12:25:38;;;;;;;17.23;5.80;;;28.00;4.90;;;;;;5030509;28;21014;-73
2023/06/17 12:28:23;;;;;;;10.23;5.70;;;28.00;6.20;;;;;;5028126;28;20545;-73
2023/06/17 12:31:10;;;;;;;6.93;5.17;;;27.80;4.10;;;;;;5028103;28;20848;-73
2023/06/17 12:33:56;;;;;;;9.83;4.30;;;27.90;6.70;;;;;;5031638;28;22371;-73
2023/06/17 12:36:41;;;;;;;7.37;4.63;;;28.20;5.50;;;;;;5029610;28;20468;-73
2023/06/17 12:39:27;;;;;;;5.87;5.27;;;28.40;5.40;;;;;;5026884;28;20450;-73
2023/06/17 12:42:13;;;;;;;8.10;5.63;;;28.40;4.30;;;;;;5025022;28;20521;-73
2023/06/17 12:44:58;;;;;;;6.60;4.77;;;28.30;5.90;;;;;;5028319;28;20457;-73
2023/06/17 12:47:45;;;;;;;7.50;5.30;;;28.50;5.80;;;;;;5027395;28;20492;-73
2023/06/17 12:50:31;;;;;;;8.77;5.47;;;28.50;5.10;;;;;;5028005;28;20482;-73
2023/06/17 12:53:16;;;;;;;8.67;5.20;;;28.70;4.20;;;;;;5027422;28;20459;-73
2023/06/17 12:56:02;;;;;;;6.63;5.13;;;28.80;4.50;;;;;;5028150;28;20614;-73
2023/06/17 12:58:48;;;;;;;5.90;5.30;;;28.80;4.10;;;;;;5028077;28;20851;-73
2023/06/17 13:01:34;;;;;;;8.60;5.50;;;28.90;4.70;;;;;;5026547;28;20446;-73
2023/06/17 13:04:21;;;;;;;6.70;5.13;;;29.00;4.70;;;;;;5028293;28;20788;-73
2023/06/17 13:07:07;;;;;;;8.90;5.17;;;29.00;4.40;;;;;;5022909;28;20463;-73
2023/06/17 13:09:52;;;;;;;7.33;5.37;;;28.90;4.00;;;;;;5025729;28;20448;-72
2023/06/17 13:12:38;;;;;;;8.90;5.17;;;28.90;5.40;;;;;;5025232;28;20444;-73
2023/06/17 13:15:23;;;;;;;6.37;4.90;;;28.90;5.40;;;;;;5022953;28;20479;-74
2023/06/17 13:18:09;;;;;;;9.27;5.13;;;29.10;5.10;;;;;;5023285;28;20585;-75
2023/06/17 13:20:56;;;;;;;12.40;5.63;;;29.20;4.80;;;;;;5021094;28;20984;-75
2023/06/17 13:23:42;;;;;;;11.53;5.97;;;28.90;5.50;;;;;;5025748;28;20440;-75
2023/06/17 13:26:30;;;;;;;6.60;5.77;;;28.50;4.80;;;;;;5024430;28;21111;-74
2023/06/17 13:29:15;;;;;;;6.23;5.10;;;28.50;5.70;;;;;;5032300;28;21017;-76
2023/06/17 13:32:00;;;;;;;7.00;5.10;;;28.50;5.80;;;;;;5026527;28;20526;-75
2023/06/17 13:34:46;;;;;;;8.40;4.90;;;28.70;5.90;;;;;;5024852;28;20581;-75
2023/06/17 13:37:33;;;;;;;7.70;5.00;;;28.90;5.00;;;;;;5026694;28;20953;-75
2023/06/17 13:40:18;;;;;;;6.47;4.97;;;29.00;4.40;;;;;;5026608;28;20471;-75
2023/06/17 13:43:05;;;;;;;6.30;5.00;;;29.20;4.10;;;;;;5025758;28;20449;-75
2023/06/17 13:45:50;;;;;;;6.47;5.00;;;29.00;2.20;;;;;;5022656;28;21179;-75
2023/06/17 13:48:36;;;;;;;9.30;5.73;;;29.30;3.20;;;;;;5031742;28;20454;-75
2023/06/17 13:51:21;;;;;;;19.53;5.50;;;29.50;3.30;;;;;;5027641;28;20491;-76
2023/06/17 13:54:09;;;;;;;5.60;5.00;;;29.60;2.60;;;;;;5030657;28;20505;-75
2023/06/17 13:56:55;;;;;;;6.90;5.13;;;29.50;3.10;;;;;;5026239;28;21000;-75
2023/06/17 13:59:40;;;;;;;6.73;5.00;;;29.70;1.80;;;;;;5028621;28;20460;-75
2023/06/17 14:02:26;;;;;;;7.10;5.40;;;29.60;3.00;;;;;;5032562;28;20433;-75
2023/06/17 14:05:11;;;;;;;8.97;5.60;;;29.70;2.10;;;;;;5041650;28;20533;-75
2023/06/17 14:07:57;;;;;;;7.30;4.93;;;29.70;4.80;;;;;;5036676;28;20472;-75
2023/06/17 14:10:44;;;;;;;8.50;5.43;;;29.80;3.60;;;;;;5026097;28;20557;-75
2023/06/17 14:13:29;;;;;;;6.60;5.70;;;30.00;3.60;;;;;;5029704;28;20510;-75
2023/06/17 14:16:15;;;;;;;7.83;6.10;;;29.90;1.10;;;;;;5029353;28;20560;-75
2023/06/17 14:19:01;;;;;;;7.00;5.37;;;29.70;1.70;;;;;;5028020;28;20463;-75
2023/06/17 14:21:55;;;;;;;11.53;5.83;;;29.60;2.60;;;;;;5028419;28;20826;-76
2023/06/17 14:24:40;;;;;;;7.57;5.50;;;29.80;2.40;;;;;;5029809;28;20457;-75